Date,TemperatureHighF,TemperatureAvgF,TemperatureLowF,DewpointHighF,DewpointAvgF,DewpointLowF,HumidityHigh,HumidityAvg,HumidityLow,PressureMaxIn,PressureMinIn,WindSpeedMaxMPH,WindSpeedAvgMPH,GustSpeedMaxMPH,PrecipitationSumIn
2013-1-1,75.4,60.4,48.4,60.7,54.2,45.6,92,81,59,30.24,30.05,9,1,9,0.00
2013-1-2,77.9,64.6,52.5,67.1,59.2,49.7,91,83,66,30.08,29.98,7,1,7,0.00
2013-1-3,70.1,59.4,55.8,64.3,56.1,52.3,91,89,82,30.20,30.05,10,2,10,0.06
2013-1-4,57.5,55.1,51.8,54.9,52.4,49.3,91,91,90,30.30,30.18,8,2,8,0.20
2013-1-5,70.8,59.6,48.5,62.3,54.3,45.4,91,83,72,30.33,30.20,9,2,9,0.00
2013-1-6,77.7,70.5,58.6,67.8,64.1,54.7,89,80,70,30.22,30.07,5,2,5,0.01
2013-1-7,66.9,60.7,51.4,59.0,55.3,48.0,90,83,73,30.25,30.16,9,3,9,0.02
2013-1-8,77.9,68.2,59.6,69.9,64.0,56.7,92,87,74,30.25,30.15,5,1,5,0.00
2013-1-9,79.0,71.1,66.1,72.2,67.1,63.4,92,87,77,30.31,30.21,5,1,5,0.00
2013-1-10,79.9,71.4,61.3,69.6,64.7,57.9,92,80,61,30.33,30.24,6,1,6,0.00
2013-1-11,79.8,67.1,57.1,69.3,61.4,54.5,92,83,62,30.28,30.16,6,1,6,0.00
2013-1-12,80.2,66.4,55.3,68.4,60.7,52.6,92,83,57,30.22,30.10,5,0,5,0.00
2013-1-13,79.4,66.7,55.0,67.1,60.6,52.1,92,82,59,30.18,30.08,5,1,5,0.01
2013-1-14,79.2,67.2,56.8,66.0,61.1,53.9,92,82,60,30.20,30.12,5,1,5,0.00
2013-1-15,79.2,69.6,60.2,67.5,63.5,57.3,91,82,62,30.16,30.06,4,1,4,0.00
2013-1-16,79.2,67.2,57.6,65.9,60.0,54.7,91,79,53,30.12,30.01,5,1,5,0.00
2013-1-17,75.0,61.0,50.4,68.1,54.9,42.1,91,81,70,30.13,29.98,14,4,14,0.03
2013-1-18,65.2,52.1,39.8,55.1,45.1,33.5,86,77,69,30.31,30.13,12,4,12,0.00
2013-1-19,71.0,61.3,52.9,60.6,55.4,49.0,88,81,69,30.31,30.16,10,3,10,0.00
2013-1-20,71.0,61.9,56.5,62.0,56.5,51.7,89,83,71,30.20,30.06,7,2,7,0.00
2013-1-21,72.9,63.0,56.9,60.5,55.9,52.8,87,78,63,30.12,30.01,7,1,7,0.00
2013-1-22,60.2,54.2,43.0,53.1,42.8,37.3,87,67,43,30.30,30.08,12,2,12,0.00
2013-1-23,64.6,51.2,39.4,39.6,36.4,32.6,88,61,32,30.39,30.29,7,1,7,0.00
2013-1-24,70.8,59.3,39.4,51.4,48.1,36.4,91,68,48,30.34,30.23,8,1,8,0.00
2013-1-25,73.1,57.6,46.0,56.4,49.2,43.1,92,76,48,30.33,30.18,5,1,5,0.00
2013-1-26,72.7,57.0,42.4,58.5,50.2,39.7,92,80,55,30.29,30.17,6,1,6,0.00
2013-1-27,76.2,60.7,47.3,62.3,54.3,44.5,91,81,58,30.33,30.24,7,1,7,0.00
2013-1-28,77.4,67.9,58.4,65.4,61.5,55.2,90,81,65,30.35,30.24,5,1,5,0.00
2013-1-29,81.3,69.9,60.0,68.3,62.9,57.1,92,80,57,30.27,30.11,7,1,7,0.00
2013-1-30,82.3,75.0,64.2,66.1,64.5,61.2,90,71,56,30.06,29.88,12,6,12,0.00
2013-1-31,71.0,55.3,41.7,65.5,41.2,28.0,89,62,30,30.25,29.88,8,2,8,0.02
2013-2-1,66.8,51.0,39.9,38.0,31.8,25.2,80,52,23,30.38,30.25,9,2,9,0.00
2013-2-2,68.7,53.1,39.6,46.6,40.1,35.1,86,64,35,30.33,30.16,6,1,6,0.00
2013-2-3,67.3,54.2,40.2,51.7,42.4,37.1,89,67,38,30.20,30.07,12,2,12,0.00
2013-2-4,67.5,52.3,38.2,44.8,38.4,34.3,90,64,30,30.16,30.06,5,1,5,0.00
2013-2-5,73.5,57.4,38.2,53.3,45.7,34.8,88,67,46,30.12,30.01,6,1,6,0.00
2013-2-6,74.2,64.7,54.9,63.5,57.7,50.6,87,79,63,30.14,30.04,5,1,5,0.00
2013-2-7,78.8,69.0,57.5,64.4,60.6,54.6,91,76,57,30.10,29.87,10,2,10,0.00
2013-2-8,76.0,67.3,57.3,63.3,59.0,53.7,89,76,51,30.09,29.88,9,2,9,0.00
2013-2-9,71.1,59.3,49.3,57.4,52.3,46.2,90,79,58,30.23,30.08,9,2,9,0.00
2013-2-10,76.8,62.8,48.1,61.4,54.5,45.0,91,76,53,30.29,30.18,9,2,9,0.00
2013-2-11,80.5,68.5,54.8,63.5,59.5,51.6,90,74,53,30.23,30.08,9,2,9,0.00
2013-2-12,82.5,70.5,57.2,67.8,62.3,54.0,91,77,55,30.11,29.93,9,2,9,0.00
2013-2-13,82.7,70.5,61.2,69.9,65.4,58.1,90,84,62,29.98,29.83,12,3,12,0.64
2013-2-14,64.6,60.0,54.4,59.4,56.6,51.6,91,88,77,30.07,29.93,7,1,7,0.21
2013-2-15,67.6,56.3,50.6,57.4,51.2,47.6,91,84,61,30.10,29.97,6,1,6,0.09
2013-2-16,65.5,54.5,46.5,51.6,42.8,27.8,91,67,40,30.16,29.92,15,3,15,0.00
2013-2-17,51.9,41.7,30.8,28.4,20.2,11.4,83,45,20,30.37,30.16,12,2,12,0.00
2013-2-18,66.3,46.5,26.9,45.8,34.9,23.3,87,67,42,30.40,30.24,7,1,7,0.00
2013-2-19,77.1,59.5,41.8,57.0,49.7,38.6,90,73,47,30.25,30.06,9,2,9,0.00
2013-2-20,72.4,61.2,51.8,59.5,53.4,48.1,90,76,60,30.16,30.03,9,1,9,0.00
2013-2-21,80.9,64.8,50.3,65.7,57.0,46.9,89,77,51,30.14,30.00,7,1,7,0.00
2013-2-22,84.3,71.8,59.9,69.9,63.6,57.0,91,77,48,30.10,29.99,9,2,9,0.00
2013-2-23,85.7,75.2,69.3,68.9,66.6,63.4,89,76,49,30.01,29.87,9,3,9,0.00
2013-2-24,72.0,68.8,64.8,68.6,65.4,61.5,90,89,87,29.97,29.87,6,1,6,0.68
2013-2-25,83.2,71.3,62.4,70.7,64.4,59.4,92,80,55,29.94,29.77,7,1,7,0.00
2013-2-26,74.5,69.6,63.4,70.2,65.0,59.8,90,85,70,29.87,29.73,9,3,9,0.39
2013-2-27,72.2,63.6,55.5,59.8,54.0,48.6,89,72,50,29.99,29.87,8,2,8,0.02
2013-2-28,71.2,58.9,45.8,53.7,48.3,42.7,90,70,41,30.01,29.89,14,2,14,0.18
2013-3-1,64.3,54.7,47.7,47.3,39.9,32.4,88,59,33,30.01,29.92,12,2,12,0.00
2013-3-2,57.6,50.2,41.1,37.1,32.7,25.9,72,52,31,30.05,29.96,16,4,16,0.00
2013-3-3,51.3,43.0,36.9,32.3,30.5,28.0,78,62,46,30.17,30.02,17,3,17,0.00
2013-3-4,63.9,45.9,28.8,37.5,29.1,21.6,89,58,24,30.25,30.13,9,1,9,0.00
2013-3-5,75.0,57.2,37.5,57.0,43.6,34.3,90,64,37,30.21,30.01,8,2,8,0.00
2013-3-6,62.7,53.9,46.0,59.1,42.2,31.1,88,66,48,30.16,29.92,11,3,11,0.00
2013-3-7,64.4,51.4,39.8,43.2,37.7,30.0,86,61,42,30.24,30.14,7,2,7,0.00
2013-3-8,72.5,53.5,37.1,47.4,39.6,34.2,90,66,25,30.25,30.13,10,1,10,0.00
2013-3-9,73.6,57.8,41.9,52.5,47.1,38.9,90,70,40,30.25,30.16,8,2,8,0.00
2013-3-10,66.9,54.7,49.3,56.4,50.5,46.5,91,86,68,30.20,30.12,9,0,2,0.00
2013-3-11,77.3,64.5,50.0,61.3,55.2,46.8,91,74,50,30.14,29.92,8,2,8,0.00
2013-3-12,71.0,65.8,56.8,64.9,60.8,53.5,89,84,77,30.04,29.86,9,3,9,0.01
2013-3-13,56.7,51.2,47.8,53.5,44.9,41.6,89,79,73,30.15,30.03,5,1,5,0.00
2013-3-18,73.3,71.1,69.3,64.9,64.4,63.9,84,80,74,29.94,29.91,7,4,7,0.00
2013-3-19,83.8,71.6,62.1,64.9,61.1,58.5,90,72,43,30.04,29.90,7,2,7,0.00
2013-3-20,75.0,64.6,56.7,66.1,59.8,53.8,90,85,68,30.00,29.80,13,1,13,0.12
2013-3-21,68.7,56.0,45.2,53.8,41.8,29.1,91,65,23,29.99,29.88,8,2,8,0.00
2013-3-22,76.5,56.9,39.3,57.7,46.8,36.3,90,73,38,30.05,29.92,6,1,6,0.05
2013-3-23,84.5,70.8,59.5,72.9,64.6,56.9,92,82,61,30.00,29.77,8,2,8,0.03
2013-3-24,80.5,72.9,66.9,72.0,67.8,63.1,90,84,74,29.85,29.62,14,3,14,0.00
2013-3-25,70.6,62.9,54.6,63.1,45.2,26.6,89,57,21,30.04,29.71,10,3,10,0.00
2013-3-26,59.2,51.0,43.6,38.8,29.5,22.0,71,45,25,30.26,30.04,16,3,16,0.00
2013-3-27,62.1,48.3,35.5,38.0,31.8,27.0,80,56,28,30.33,30.22,7,2,7,0.00
2013-3-28,71.6,52.6,35.4,46.9,35.2,28.2,89,59,22,30.32,30.19,7,1,7,0.00
2013-3-29,73.9,56.3,39.4,47.0,38.3,32.8,90,58,23,30.35,30.20,8,1,8,0.00
2013-3-30,77.3,60.4,42.2,53.5,46.1,38.8,90,63,37,30.28,30.12,7,1,7,0.00
2013-3-31,80.3,67.3,55.2,56.9,53.4,49.4,87,64,35,30.19,30.00,12,2,12,0.00
2013-4-1,82.4,69.7,58.0,65.5,60.3,53.8,89,74,49,30.03,29.93,12,2,12,0.00
2013-4-2,82.5,69.1,58.8,62.1,55.7,48.6,92,66,36,30.10,30.00,8,1,8,0.00
2013-4-3,82.2,67.4,55.6,66.8,60.1,52.1,90,79,57,30.10,29.97,8,1,8,0.12
2013-4-4,72.5,68.8,65.1,67.4,64.9,61.8,91,88,81,30.03,29.84,10,2,10,0.02
2013-4-5,75.3,66.6,56.1,66.3,61.2,52.9,89,83,63,30.01,29.81,10,3,10,0.00
2013-4-6,74.5,62.8,51.8,59.2,54.8,48.6,89,77,57,30.16,30.00,10,3,10,0.00
2013-4-7,79.3,66.1,55.5,62.3,57.3,52.6,91,75,49,30.18,30.08,7,1,7,0.00
2013-4-8,83.0,68.8,55.3,64.6,59.1,52.1,91,74,48,30.16,30.06,7,1,7,0.00
2013-4-9,84.1,70.1,58.4,67.2,60.5,55.1,91,74,52,30.19,30.09,8,1,8,0.00
2013-4-10,84.5,70.5,55.8,68.7,61.9,52.6,91,76,50,30.15,29.99,7,1,7,0.00
2013-4-11,88.6,78.0,72.2,72.6,69.7,66.8,89,77,49,30.01,29.82,10,3,10,0.03
2013-4-12,82.8,77.2,73.6,73.2,70.9,69.0,87,81,68,29.90,29.81,12,4,12,0.00
2013-4-13,87.7,74.4,64.9,70.2,64.8,55.2,90,74,45,30.00,29.88,5,1,5,0.00
2013-4-14,86.6,71.1,61.7,74.4,65.4,57.1,90,83,62,30.00,29.83,8,1,8,0.11
2013-4-15,88.4,73.8,64.0,69.1,64.2,60.5,90,74,48,30.09,29.89,7,1,7,0.01
2013-4-16,85.8,73.7,65.1,71.5,66.3,62.1,92,79,61,30.16,30.06,9,2,9,0.00
2013-4-17,83.8,71.9,63.0,69.2,64.5,60.3,92,79,53,30.17,30.06,9,2,9,0.00
2013-4-18,87.5,74.8,62.3,70.6,65.2,59.3,91,74,47,30.07,29.95,6,1,6,0.00
2013-4-19,84.0,76.1,73.0,72.4,70.5,69.2,88,83,66,30.02,29.98,10,2,10,0.00
2013-5-1,75.9,70.7,68.7,68.2,66.6,65.3,89,87,77,30.02,29.99,7,3,7,0.00
2013-5-2,71.0,68.4,64.8,67.8,65.5,61.8,92,91,89,29.99,29.84,12,2,12,2.58
2013-5-3,79.0,70.4,67.1,71.3,66.5,64.2,93,88,73,29.86,29.74,21,5,21,3.88
2013-5-4,82.8,73.0,67.5,72.0,67.9,64.5,91,84,68,29.80,29.69,13,3,13,0.10
2013-5-5,78.6,68.7,58.3,66.6,54.9,46.5,89,65,35,29.95,29.77,17,6,17,0.00
2013-5-6,75.7,66.1,57.0,58.7,54.8,50.8,90,69,44,30.02,29.91,16,5,16,0.00
2013-5-7,79.3,64.9,48.5,60.4,55.1,46.0,92,73,49,30.07,29.98,18,5,18,0.00
2013-5-8,83.0,68.5,53.2,64.6,58.4,50.9,93,73,44,30.15,30.04,14,3,14,0.00
2013-5-9,87.0,71.0,54.5,67.2,60.3,52.1,93,72,43,30.17,30.08,10,2,10,0.00
2013-5-10,91.0,75.1,58.0,70.8,64.5,55.4,92,73,44,30.15,30.00,14,3,14,0.00
2013-5-11,89.8,75.5,65.2,73.8,68.3,62.4,91,80,52,30.07,29.97,20,4,20,0.07
2013-5-12,89.3,76.3,65.2,71.3,66.7,62.3,91,74,50,30.05,29.95,18,4,18,0.00
2013-5-13,83.8,72.2,57.3,65.8,57.8,47.4,89,64,33,30.16,30.01,14,3,14,0.00
2013-5-14,84.5,66.9,46.4,56.1,50.3,43.6,91,61,29,30.24,30.14,12,2,12,0.00
2013-5-15,87.5,70.2,51.7,63.3,55.8,49.1,92,65,36,30.25,30.10,12,2,12,0.00
2013-5-16,87.5,72.1,55.6,66.1,60.5,52.9,92,70,37,30.16,30.03,12,2,12,0.00
2013-5-17,89.5,74.7,58.5,70.2,63.9,55.9,92,72,43,30.13,30.05,13,3,13,0.00
2013-5-18,92.3,77.5,62.3,72.9,67.0,59.6,92,73,42,30.14,30.01,13,3,13,0.00
2013-5-19,88.5,76.3,67.4,75.4,69.5,63.8,91,80,61,30.11,30.00,17,4,17,0.71
2013-5-20,90.4,76.4,68.8,72.8,68.5,60.4,91,78,51,30.11,30.00,12,2,12,0.00
2013-5-21,81.8,72.7,67.3,73.8,68.3,64.8,93,86,73,30.06,29.95,12,2,12,0.12
2013-5-22,87.3,74.8,65.6,74.0,68.9,63.2,93,83,60,30.00,29.92,12,2,12,0.00
2013-5-23,92.7,77.2,65.6,75.0,69.1,63.2,93,78,50,30.01,29.91,12,2,12,0.00
2013-5-24,93.3,79.6,65.9,73.8,66.5,59.9,93,68,35,30.11,29.98,13,3,13,0.00
2013-5-25,88.1,74.8,62.7,68.9,62.6,58.4,92,69,42,30.22,30.10,12,3,12,0.00
2013-5-26,88.0,71.0,52.7,64.4,58.1,50.1,92,67,37,30.24,30.16,12,2,12,0.00
2013-5-27,87.0,72.6,57.4,66.7,61.2,54.2,91,70,42,30.21,30.12,14,3,14,0.00
2013-5-28,88.9,75.9,63.0,72.4,66.9,59.4,90,75,55,30.18,30.08,18,4,18,0.00
2013-5-29,87.4,77.9,69.1,74.1,70.5,66.0,92,79,61,30.15,30.08,18,4,18,0.00
2013-5-30,85.3,76.8,70.0,75.0,71.0,66.9,91,83,68,30.15,30.06,20,5,20,0.12
2013-5-31,86.0,76.9,68.5,74.9,70.3,65.2,90,81,64,30.14,30.05,16,4,16,0.00
2013-6-1,87.7,77.8,69.7,76.5,71.8,66.6,91,82,66,30.10,30.00,16,4,16,0.03
2013-6-2,93.5,78.6,71.8,77.9,72.8,69.1,92,83,54,30.04,29.88,12,2,12,0.60
2013-6-3,91.0,79.3,71.4,76.3,72.6,69.0,92,81,56,30.02,29.88,13,3,13,0.05
2013-6-4,89.2,77.1,71.4,76.5,71.8,68.3,92,84,60,30.06,29.95,16,3,16,0.21
2013-6-5,85.8,74.4,70.3,77.3,70.5,67.6,92,88,66,30.04,29.93,15,2,15,0.50
2013-6-6,80.7,74.6,71.7,75.6,71.0,68.9,92,89,75,29.93,29.65,29,7,29,1.75
2013-6-7,89.9,80.2,71.6,75.8,72.3,68.5,90,78,59,29.96,29.76,14,6,14,0.00
2013-6-8,91.4,76.3,70.6,77.7,71.0,67.3,91,84,62,30.11,29.96,16,2,16,2.09
2013-6-9,93.5,77.6,69.8,82.3,72.9,67.4,93,86,60,30.13,30.04,10,2,10,0.25
2013-6-10,93.8,78.8,71.0,77.0,72.0,68.2,93,81,51,30.11,30.01,23,2,23,0.02
2013-6-11,92.3,76.9,70.0,78.8,72.2,66.6,92,86,61,30.10,30.03,15,2,15,1.32
2013-6-12,95.0,82.0,69.8,78.4,72.5,67.6,94,75,43,30.10,29.99,10,2,10,0.00
2013-6-13,93.5,86.0,72.4,78.0,74.2,69.9,92,69,54,30.04,29.89,13,5,13,0.00
2013-6-14,90.7,81.9,73.8,76.5,73.1,70.1,90,76,52,29.95,29.84,17,5,17,0.00
2013-6-15,90.0,80.6,74.2,77.7,73.5,70.2,93,80,64,30.09,29.92,13,4,13,0.61
2013-6-16,90.5,80.6,75.3,78.8,74.1,70.7,89,81,64,30.11,30.04,13,3,13,0.05
2013-6-17,94.2,81.8,74.1,79.7,75.0,70.6,92,81,53,30.09,29.98,14,3,14,0.66
2013-6-18,91.7,82.0,72.9,78.3,74.1,69.8,91,78,61,30.07,29.95,13,3,13,0.00
2013-6-19,91.0,81.4,72.6,78.3,74.0,69.8,92,79,60,30.05,29.96,12,3,12,0.00
2013-6-20,96.8,79.8,71.0,77.0,71.7,68.2,92,78,46,30.10,30.01,18,2,18,0.19
2013-6-21,92.8,76.2,69.1,76.8,70.5,66.8,93,84,55,30.15,30.05,17,2,17,2.65
2013-6-22,87.8,76.1,68.6,77.6,71.8,66.6,94,87,68,30.14,30.08,13,2,13,0.47
2013-6-23,92.0,79.4,69.6,77.5,73.2,67.2,93,82,58,30.17,30.09,16,2,16,0.00
2013-6-24,93.2,80.7,71.4,77.8,73.4,68.8,93,80,54,30.21,30.09,14,2,14,0.22
2013-6-25,93.9,81.3,70.7,77.0,72.6,68.3,93,77,50,30.18,30.05,13,2,13,0.00
2013-6-26,95.0,79.8,71.7,78.0,72.9,69.3,93,81,51,30.10,30.02,12,2,12,0.02
2013-6-27,91.8,79.1,68.8,78.2,72.8,66.4,93,82,60,30.06,29.94,13,2,13,0.25
2013-6-28,90.4,80.0,74.0,78.3,73.9,70.9,91,82,62,29.98,29.85,13,3,13,0.01
2013-6-29,89.1,79.9,74.1,78.3,74.1,71.0,91,83,62,29.88,29.79,20,4,20,0.00
2013-6-30,87.8,77.7,73.9,79.5,73.2,70.7,90,86,71,29.89,29.82,16,4,16,0.16
2013-7-1,83.8,76.5,72.2,75.8,72.0,69.1,91,86,75,30.05,29.87,15,5,15,0.17
2013-7-2,86.2,76.5,72.0,79.6,72.6,69.2,92,88,77,30.11,30.00,12,3,12,0.19
2013-7-3,89.9,77.1,71.6,78.2,72.9,69.3,93,87,66,30.15,30.08,12,3,12,0.57
2013-7-4,91.0,77.5,71.3,77.3,71.9,68.2,93,84,59,30.18,30.09,18,4,18,0.80
2013-7-5,89.3,78.9,70.6,78.2,73.0,67.8,93,83,62,30.18,30.08,18,4,18,0.39
2013-7-6,91.2,81.1,71.5,77.2,73.4,69.1,93,79,57,30.15,30.06,16,4,16,0.00
2013-7-7,90.8,81.3,72.9,77.4,73.9,70.1,93,79,58,30.16,30.06,13,4,13,0.01
2013-7-8,93.3,82.0,71.9,77.8,73.7,69.4,93,78,56,30.18,30.09,12,3,12,0.00
2013-7-9,93.1,81.1,69.4,76.5,71.8,67.0,94,75,50,30.19,30.08,15,2,15,0.00
2013-7-10,93.0,79.8,69.7,77.5,72.0,67.3,93,79,53,30.11,29.98,15,2,15,0.03
2013-7-11,93.5,79.8,70.7,75.9,72.4,68.3,93,80,52,30.05,29.91,12,3,12,0.01
2013-7-12,88.4,79.0,71.3,77.5,73.1,68.5,92,83,66,29.96,29.90,9,2,9,0.00
2013-7-13,92.0,77.3,71.0,76.9,71.7,68.3,93,84,55,30.02,29.92,18,2,18,1.57
2013-7-14,90.8,76.0,70.4,78.4,71.8,68.2,93,87,63,30.12,29.99,12,2,12,0.91
2013-7-15,85.9,77.5,68.4,77.6,72.4,66.3,94,85,71,30.15,30.04,9,2,9,0.04
2013-7-16,91.3,79.6,72.9,77.3,72.8,70.0,91,81,60,30.18,30.12,21,3,21,0.00
2013-7-17,91.4,79.6,72.9,77.8,73.1,69.5,92,82,58,30.19,30.10,12,3,12,0.01
2013-7-18,88.0,78.3,72.0,77.0,72.5,69.5,93,83,60,30.14,30.06,20,3,20,0.00
2013-7-19,90.7,77.0,71.0,76.8,71.6,68.4,92,84,62,30.15,30.05,17,2,17,0.79
2013-7-20,90.4,77.4,72.6,79.2,72.7,70.1,92,86,63,30.12,30.02,14,2,14,0.77
2013-7-21,92.0,78.5,71.7,80.7,73.5,69.6,93,85,63,30.14,30.03,14,2,14,0.00
2013-7-22,89.9,77.5,73.1,80.1,73.3,70.2,93,87,68,30.14,30.07,17,2,17,0.25
2013-7-23,83.8,75.9,72.4,77.6,72.4,69.7,93,89,81,30.10,29.97,17,3,17,0.28
2013-7-24,85.5,78.2,72.4,78.2,74.1,69.3,92,88,75,30.01,29.88,15,4,15,1.23
2013-7-25,84.9,78.5,74.2,77.7,73.9,70.8,91,86,76,29.99,29.87,20,4,20,0.22
2013-7-26,95.0,81.0,71.6,79.4,74.2,69.5,94,81,56,30.02,29.95,12,2,12,0.00
2013-7-27,94.3,80.9,72.5,80.1,74.5,70.0,93,82,57,30.02,29.89,12,2,12,0.00
2013-7-28,90.3,77.6,70.4,78.7,72.6,68.0,93,85,64,30.08,29.95,12,2,12,0.28
2013-7-29,90.8,78.9,70.3,79.3,73.5,68.2,94,85,65,30.15,30.04,16,1,16,0.03
2013-7-30,94.7,85.9,73.5,79.1,76.1,71.4,93,74,51,30.19,30.08,13,2,13,0.01
2013-7-31,94.5,80.2,71.4,78.6,74.0,68.0,93,83,55,30.15,30.02,19,2,19,2.12
2013-8-1,91.6,78.4,71.2,78.6,72.7,68.6,93,84,56,30.08,29.97,12,2,12,0.01
2013-8-2,94.5,81.1,70.9,77.9,73.1,68.5,93,78,53,30.05,29.96,9,1,9,0.00
2013-8-3,91.8,80.0,73.6,78.8,74.2,70.7,92,83,61,30.10,30.01,18,3,18,0.05
2013-8-4,89.0,79.5,73.8,80.1,75.0,71.3,93,87,72,30.10,29.99,14,2,14,0.14
2013-8-5,92.5,80.9,74.3,82.0,75.4,71.2,94,84,60,30.03,29.91,17,3,17,0.27
2013-8-6,95.5,80.1,72.6,80.9,74.7,70.1,93,84,58,30.00,29.91,17,2,17,1.31
2013-8-7,94.3,81.4,74.7,80.2,75.8,72.2,93,84,60,30.00,29.93,9,2,9,0.00
2013-8-8,93.6,82.2,74.7,79.8,75.2,72.2,92,80,55,30.06,29.96,13,3,13,0.02
2013-8-9,93.8,80.7,72.9,81.0,74.7,70.3,93,83,58,30.08,30.00,12,2,12,0.06
2013-8-10,94.7,82.2,70.8,80.6,74.5,68.1,93,79,57,30.15,30.05,10,2,10,0.01
2013-8-11,95.7,83.0,71.8,79.3,74.4,69.3,93,77,51,30.17,30.06,8,2,8,0.00
2013-8-12,95.3,82.7,71.8,80.5,74.6,69.1,92,78,58,30.14,30.00,9,2,9,0.00
2013-8-13,95.2,83.1,73.4,79.3,74.2,70.2,91,76,47,30.06,29.92,8,2,8,0.00
2013-8-14,97.4,81.0,73.1,79.8,74.2,70.3,91,81,51,30.02,29.89,18,2,18,0.13
2013-8-15,94.2,82.1,72.6,79.6,74.0,70.0,92,78,52,30.05,29.92,17,2,17,0.01
2013-8-16,91.8,81.4,74.5,79.1,74.5,71.0,90,80,55,30.08,29.97,15,2,15,0.02
2013-8-17,93.8,79.9,73.9,79.9,74.3,70.2,92,84,62,30.12,29.98,18,2,18,1.28
2013-8-18,92.0,80.4,72.7,79.1,74.8,70.6,94,84,61,30.12,30.03,15,3,15,0.02
2013-8-19,90.2,79.6,72.4,79.9,74.4,69.9,93,85,69,30.11,29.99,12,2,12,0.05
2013-8-20,94.5,82.3,72.9,79.2,74.9,70.4,93,80,54,30.12,30.01,13,2,13,0.01
2013-8-21,90.9,78.6,73.9,79.8,74.2,69.7,92,87,68,30.14,30.07,14,2,14,0.30
2013-8-22,92.2,78.5,74.2,81.7,74.3,70.7,92,87,68,30.11,30.02,13,2,13,0.06
2013-8-23,93.3,77.4,72.2,80.5,73.5,68.8,93,88,64,30.06,29.99,13,2,13,0.93
2013-8-24,93.3,77.0,72.2,80.2,72.8,69.7,94,88,64,30.15,30.02,10,1,10,0.64
2013-8-25,87.3,78.5,72.1,78.1,73.8,69.6,93,86,72,30.18,30.10,9,2,9,0.01
2013-8-26,88.8,78.7,73.1,78.1,73.3,70.2,91,84,66,30.17,30.05,14,3,14,0.43
2013-8-27,90.3,79.1,71.2,76.9,71.8,67.8,93,79,58,30.10,30.01,12,2,12,0.27
2013-8-28,92.3,78.8,66.5,75.3,69.9,63.8,93,76,52,30.08,29.99,10,2,10,0.00
2013-8-29,94.7,80.8,69.4,75.6,71.6,66.5,92,75,47,30.05,29.92,9,2,9,0.00
2013-8-30,95.0,82.1,71.8,78.5,73.2,68.9,92,76,49,30.00,29.88,16,2,16,0.00
2013-8-31,91.2,80.1,72.7,78.7,73.3,68.7,92,81,59,29.99,29.88,16,3,16,0.00
2013-9-1,92.8,79.8,70.4,77.9,72.5,67.6,92,80,56,30.01,29.89,16,2,16,0.44
2013-9-2,92.3,80.5,71.3,78.4,73.1,68.8,92,80,55,30.03,29.92,17,2,17,0.01
2013-9-3,92.3,81.1,72.5,78.6,74.2,70.0,92,80,59,30.03,29.92,17,2,17,0.06
2013-9-4,93.8,80.3,72.5,79.8,74.1,69.0,92,82,59,30.10,29.99,9,2,9,0.27
2013-9-5,94.8,81.0,70.0,78.9,72.8,67.3,93,78,51,30.12,30.01,8,1,8,0.00
2013-9-6,92.4,77.4,71.5,80.2,72.6,68.0,92,86,62,30.07,29.99,14,2,14,0.49
2013-9-7,91.3,77.7,71.0,78.0,72.0,68.4,93,83,59,30.04,29.95,8,2,8,0.03
2013-9-8,90.8,78.8,69.3,76.3,71.5,66.2,93,79,58,30.00,29.90,12,2,12,0.01
2013-9-9,91.8,78.5,66.3,76.4,69.8,63.8,93,77,49,30.06,29.96,12,2,12,0.00
2013-9-10,91.5,79.2,69.5,75.9,70.8,66.4,90,77,49,30.12,30.02,15,3,15,0.00
2013-9-11,91.3,80.3,71.4,77.1,72.3,68.0,90,78,54,30.11,30.02,13,3,13,0.00
2013-9-12,92.3,78.7,71.0,77.2,72.1,68.2,93,81,55,30.05,29.91,14,2,14,0.02
2013-9-13,93.0,79.2,68.7,77.3,71.7,66.0,93,79,53,29.93,29.80,10,1,10,0.00
2013-9-14,93.8,81.4,71.1,77.6,73.3,68.2,92,78,55,30.00,29.84,12,1,12,0.00
2013-9-15,93.2,80.7,72.9,79.7,74.1,70.1,92,81,56,30.09,29.99,17,3,17,0.01
2013-9-16,93.3,81.1,71.3,76.7,72.8,68.5,92,77,54,30.10,29.99,12,2,12,0.00
2013-9-17,90.5,79.5,70.2,79.5,72.5,67.4,92,80,61,30.09,29.98,13,3,13,0.02
2013-9-18,89.7,78.9,73.0,76.8,72.4,69.4,89,81,61,30.07,30.00,15,4,15,0.02
2013-9-19,91.2,78.3,71.0,76.6,71.8,67.5,90,81,58,30.08,30.00,16,3,16,0.35
2013-9-20,88.7,76.5,65.8,74.2,69.0,63.1,92,79,58,30.06,29.93,10,2,10,0.01
2013-9-21,90.1,77.3,64.5,74.5,68.8,62.1,93,77,50,29.97,29.77,7,1,7,0.00
2013-9-22,88.3,77.3,72.0,77.1,72.2,68.2,91,85,68,29.87,29.77,13,2,13,0.07
2013-9-23,84.0,75.7,72.8,78.2,72.6,69.8,92,90,80,29.98,29.85,9,2,9,0.57
2013-9-24,82.7,76.5,70.9,76.5,72.7,67.6,92,88,79,29.98,29.84,12,3,12,0.59
2013-9-25,81.5,77.2,72.9,74.4,72.0,69.1,89,84,76,29.86,29.78,15,5,15,0.00
2013-9-26,90.0,80.0,70.7,77.6,72.6,67.0,92,80,50,29.89,29.78,13,4,13,0.00
2013-9-27,80.4,73.2,67.6,74.0,69.1,64.6,91,87,80,29.99,29.87,12,3,12,0.20
2013-9-28,82.0,74.6,69.7,74.8,69.9,67.0,91,85,75,30.05,29.94,9,3,9,0.04
2013-9-29,88.1,75.2,66.5,74.0,68.5,63.4,92,81,57,30.02,29.93,10,1,10,0.00
2013-9-30,89.3,75.6,66.1,73.9,68.8,63.3,92,81,56,30.04,29.93,8,0,8,0.00
2013-10-1,80.4,72.8,69.6,72.2,68.1,66.1,89,86,72,30.09,30.00,8,0,3,0.00
2013-10-2,89.7,75.7,65.2,73.4,67.5,62.2,91,77,56,30.09,30.02,8,0,8,0.00
2013-10-3,90.6,76.2,64.1,76.4,68.8,61.4,92,79,54,30.10,30.00,9,0,9,0.00
2013-10-4,91.7,77.8,67.1,75.3,70.0,64.7,92,79,51,30.11,30.01,5,0,5,0.00
2013-10-5,90.8,77.2,65.2,76.2,70.1,62.8,93,80,59,30.08,29.98,10,0,10,0.00
2013-10-6,90.5,76.8,67.4,76.2,70.3,65.0,92,82,56,30.01,29.87,17,0,17,0.07
2013-10-7,81.9,74.3,68.7,76.4,70.8,66.2,93,89,81,29.90,29.75,8,1,8,0.14
2013-10-8,85.7,76.4,72.2,76.7,72.0,68.8,92,87,72,29.98,29.78,10,1,10,0.14
2013-10-9,78.3,71.0,66.1,70.1,66.4,62.8,89,86,74,30.07,29.96,12,4,12,0.00
2013-10-10,86.0,71.8,59.4,71.1,64.2,57.3,93,79,50,30.09,29.99,12,1,12,0.00
2013-10-11,86.5,71.1,58.2,71.7,63.5,56.2,94,79,52,30.08,29.95,9,0,8,0.00
2013-10-12,87.3,71.7,58.0,69.9,62.0,55.9,93,75,44,30.07,29.98,6,0,6,0.00
2013-10-13,87.0,72.9,58.9,69.8,62.8,56.6,92,73,45,30.11,30.01,6,0,6,0.00
2013-10-14,86.5,73.7,63.4,70.4,66.6,60.3,91,80,53,30.07,29.95,10,1,10,0.00
2013-10-15,78.7,72.2,65.8,71.7,67.9,62.8,90,86,78,30.02,29.92,7,1,7,0.00
2013-10-16,87.7,76.0,69.8,74.1,69.3,66.9,91,81,55,30.00,29.91,1,0,1,0.00
2013-10-17,88.0,76.1,66.1,74.6,69.0,63.6,93,80,53,30.01,29.90,2,0,2,0.01
2013-10-18,89.6,77.1,65.0,74.9,69.4,62.6,93,79,54,30.01,29.90,6,0,6,0.00
2013-10-19,89.7,77.5,65.7,76.0,70.5,63.3,92,80,57,29.97,29.87,9,0,9,0.00
2013-10-20,86.3,76.4,70.0,75.4,70.9,66.3,92,84,68,30.00,29.88,6,1,6,0.00
2013-10-21,91.5,77.8,68.9,79.0,72.1,66.1,92,83,58,30.02,29.91,6,1,6,0.02
2013-10-22,88.8,77.6,70.9,77.8,71.5,68.5,93,82,59,29.97,29.82,13,2,13,0.00
2013-10-23,82.5,72.3,59.3,69.3,62.1,52.6,90,72,39,30.04,29.82,12,1,12,0.02
2013-10-24,73.0,61.9,53.2,58.6,52.5,48.8,89,72,55,30.19,30.03,7,1,7,0.00
2013-10-25,80.8,63.4,48.1,58.3,53.0,45.8,93,72,43,30.28,30.17,7,0,7,0.00
2013-10-26,79.5,63.6,48.0,58.0,52.6,45.2,91,71,39,30.24,30.12,3,0,3,0.00
2013-10-27,79.2,62.2,47.6,59.5,52.4,45.3,93,73,41,30.18,30.08,6,0,6,0.00
2013-10-28,83.8,64.4,45.6,65.3,56.0,43.3,92,77,47,30.23,30.13,5,0,5,0.00
2013-10-29,84.0,70.5,57.2,68.3,63.0,54.6,93,79,56,30.26,30.17,13,2,13,0.00
2013-10-30,85.0,71.3,60.5,69.9,64.4,57.8,93,80,56,30.26,30.13,8,0,8,0.00
2013-10-31,85.0,72.2,58.8,70.6,64.7,56.5,92,79,54,30.17,30.00,12,1,12,0.01
2013-11-1,88.1,75.8,66.5,72.2,67.8,63.5,92,78,49,30.03,29.87,16,3,16,0.00
2013-11-2,73.2,67.8,56.4,70.1,64.4,54.1,92,89,85,30.00,29.81,14,1,14,0.61
2013-11-3,75.3,62.6,52.4,59.8,52.9,47.8,94,73,39,30.16,29.99,13,2,13,0.01
2013-11-4,79.7,67.7,58.3,64.9,59.3,53.8,89,76,48,30.22,30.14,16,3,16,0.01
2013-11-5,76.0,67.5,64.2,67.9,63.9,61.2,90,88,76,30.19,30.14,10,1,10,0.03
2013-11-6,82.7,71.6,63.3,70.7,65.6,60.5,91,82,61,30.16,30.07,12,1,12,0.01
2013-11-7,79.4,70.2,62.1,70.4,66.2,59.3,93,87,72,30.08,29.98,2,0,2,0.01
2013-11-8,75.0,65.2,59.9,65.2,59.8,52.4,93,83,70,30.17,30.02,13,3,13,0.00
2013-11-9,80.5,68.3,59.5,66.6,60.6,55.9,88,78,60,30.22,30.14,10,1,10,0.00
2013-11-10,82.0,72.1,64.2,68.9,64.9,61.2,90,79,59,30.19,30.11,4,1,4,0.00
2013-11-11,82.0,69.8,61.3,69.8,63.4,58.3,90,81,62,30.20,30.09,7,1,7,0.00
2013-11-12,80.6,68.1,59.3,70.2,63.0,56.8,93,84,66,30.15,30.03,3,0,3,0.02
2013-11-13,63.9,58.3,51.9,58.0,50.1,46.5,85,75,60,30.37,30.11,20,5,20,0.00
2013-11-14,74.9,59.5,46.2,61.0,52.2,43.3,91,78,55,30.35,30.23,16,1,13,0.00
2013-11-15,71.0,63.4,52.5,64.2,59.5,49.7,91,87,77,30.24,30.11,5,0,5,0.15
2013-11-16,77.3,67.6,63.9,70.9,64.6,61.1,92,90,81,30.17,30.08,2,0,2,0.45
2013-11-17,84.8,74.3,66.6,73.3,68.7,64.2,93,84,63,30.12,30.00,9,0,9,0.02
2013-11-18,81.6,73.4,65.3,72.8,68.1,62.9,92,84,70,30.05,29.93,10,0,10,0.02
2013-11-19,76.1,69.0,62.7,67.2,61.8,53.7,92,79,59,30.02,29.90,7,1,7,0.00
2013-11-20,79.8,70.4,63.5,71.5,65.5,60.0,90,85,72,30.15,30.00,12,1,12,0.00
2013-11-21,78.7,70.8,67.0,72.0,67.0,64.0,91,88,78,30.23,30.13,9,1,9,0.00
2013-11-22,80.4,71.7,63.2,71.1,66.3,60.1,91,84,66,30.24,30.13,12,1,12,0.02
2013-11-23,83.8,70.8,59.3,70.8,63.7,57.0,93,80,54,30.15,30.01,5,0,5,0.00
2013-11-24,69.0,63.0,57.9,64.6,56.5,50.5,89,80,72,30.29,30.06,16,5,16,0.00
2013-11-25,76.4,65.9,58.6,61.0,56.6,52.3,87,72,53,30.30,30.12,16,3,16,0.00
2013-11-26,82.3,72.3,61.1,73.0,67.3,57.3,91,85,71,30.12,29.75,18,4,18,0.21
2013-11-27,73.3,59.7,39.3,69.5,53.9,34.9,91,82,67,30.25,29.71,27,9,27,0.50
2013-11-28,63.9,48.0,32.3,52.1,41.3,28.6,88,78,61,30.39,30.24,9,3,9,0.00
2013-11-29,71.3,57.5,47.7,60.1,51.7,44.7,90,82,64,30.42,30.31,12,4,12,0.00
2013-11-30,76.6,63.5,55.2,65.5,58.2,51.7,91,84,60,30.35,30.23,12,4,12,0.00
2013-12-1,75.0,64.2,58.8,65.8,60.0,55.8,92,87,71,30.23,30.01,8,2,8,0.00
2013-12-2,72.2,61.2,50.4,62.2,56.2,47.6,93,85,58,30.00,29.83,12,2,12,0.00
2013-12-3,78.1,61.7,46.5,62.9,55.1,44.3,93,81,56,30.02,29.90,8,1,8,0.00
2013-12-4,81.2,66.2,54.8,70.4,60.5,52.4,93,83,57,30.11,30.00,9,1,9,0.01
2013-12-5,83.1,68.4,56.1,70.0,62.2,53.8,93,82,59,30.20,30.10,9,1,9,0.00
2013-12-6,84.6,70.5,59.0,71.8,64.5,56.7,93,82,59,30.21,30.10,12,2,12,0.01
2013-12-7,84.7,70.2,59.5,70.2,63.5,57.2,93,81,55,30.27,30.15,12,1,12,0.00
2013-12-8,83.8,68.6,57.4,72.1,63.1,55.1,93,84,57,30.27,30.12,12,2,12,0.00
2013-12-9,83.9,69.4,57.7,72.3,63.6,55.4,93,83,58,30.22,30.10,12,2,12,0.01
2013-12-10,83.5,71.0,56.5,71.6,64.0,53.9,92,80,58,30.19,30.07,13,3,13,0.00
2013-12-11,82.7,70.3,55.5,69.7,63.0,52.0,88,78,63,30.29,30.17,10,3,7,0.00
2013-12-12,69.1,58.3,44.6,56.8,45.6,26.4,90,67,25,30.36,30.24,12,3,12,0.00
2013-12-13,75.8,58.4,45.7,57.9,50.5,42.4,92,77,46,30.32,30.16,12,2,12,0.00
2013-12-14,82.2,67.8,52.5,70.7,62.3,49.6,91,83,67,30.16,29.95,16,3,16,0.00
2013-12-15,72.8,65.0,56.2,68.8,60.6,52.9,91,86,75,30.16,29.88,16,4,16,0.80
2013-12-16,63.2,50.7,36.5,52.9,43.3,33.8,91,78,45,30.27,30.16,7,2,7,0.00
2013-12-17,70.5,50.7,35.1,53.6,43.9,32.7,94,80,53,30.30,30.17,7,1,7,0.00
2013-12-18,69.2,49.7,35.7,48.9,41.5,33.6,93,76,46,30.33,30.23,12,1,12,0.00
2013-12-19,74.8,53.7,34.5,61.2,47.3,32.3,93,81,53,30.32,30.20,9,1,9,0.01
2013-12-20,81.7,62.5,43.7,65.1,55.3,41.4,93,79,54,30.25,30.13,10,2,10,0.00
2013-12-21,85.2,70.0,55.6,71.6,64.1,53.3,93,83,58,30.18,30.05,15,4,15,0.00
2013-12-22,84.6,72.0,61.5,72.4,66.4,58.8,93,83,64,30.17,30.08,23,3,23,0.00
2013-12-23,84.7,74.0,63.3,73.3,67.9,60.6,93,82,61,30.19,30.08,14,3,14,0.01
2013-12-24,72.0,60.7,47.9,68.9,50.9,36.4,91,73,36,30.31,30.11,13,4,13,0.14
2013-12-25,74.2,56.7,41.6,59.8,49.4,37.8,90,77,58,30.30,30.19,8,2,8,0.00
2013-12-26,75.5,60.6,54.7,64.4,56.1,52.1,92,86,65,30.27,30.13,9,3,9,0.00
2013-12-27,67.4,61.4,55.7,63.1,57.8,52.5,90,88,84,30.30,30.21,9,3,9,0.00
2013-12-28,76.3,68.0,62.3,70.8,64.8,59.3,92,90,80,30.27,30.04,14,3,14,0.09
2013-12-29,76.3,70.7,63.8,71.7,67.4,60.9,91,89,86,30.05,29.91,12,4,12,0.25
2013-12-30,69.9,60.1,52.1,60.9,53.9,46.8,92,81,49,30.24,30.01,7,2,7,0.00
2013-12-31,69.8,59.0,50.9,53.8,50.9,48.3,91,76,51,30.35,30.20,8,2,8,0.00
2014-1-1,63.4,58.8,55.6,60.4,55.8,51.8,92,89,85,30.30,30.10,9,2,9,0.11
2014-1-2,76.8,65.2,56.2,71.9,62.5,52.3,94,91,81,30.09,29.84,21,4,21,0.32